Time,TemperatureF,DewpointF,PressureIn,WindDirection,WindDirectionDegrees,WindSpeedMPH,WindSpeedGustMPH,Humidity,HourlyPrecipIn,Conditions,Clouds,dailyrainin,SoftwareType,DateUTC
2013-04-30 00:10:00,55.9,47.4,28.15,NE,49,0.0,2.0,73,0.00,CLR,,0.00,WeatherDisplay:10.37,2013-04-30 04:10:00,
2013-04-30 00:20:00,55.4,46.5,28.12,ENE,68,0.0,0.0,72,0.00,CLR,,0.00,WeatherDisplay:10.37,2013-04-30 04:20:00,
2013-04-30 00:30:00,55.2,47.1,28.12,NE,37,0.0,0.0,74,0.00,CLR,,0.00,WeatherDisplay:10.37,2013-04-30 04:30:00,
2013-04-30 00:40:00,55.4,48.3,28.12,ENE,61,1.0,2.0,77,0.00,CLR,,0.00,WeatherDisplay:10.37,2013-04-30 04:40:00,
2013-04-30 00:50:00,55.6,48.1,28.12,ENE,65,1.0,2.0,76,0.00,CLR,,0.00,WeatherDisplay:10.37,2013-04-30 04:50:00,
2013-04-30 01:00:00,55.4,47.6,28.12,NE,55,0.0,2.0,75,0.00,CLR,,0.00,WeatherDisplay:10.37,2013-04-30 05:00:00,
2013-04-30 01:10:00,55.4,47.2,28.12,NE,40,0.0,0.0,74,0.00,CLR,,0.00,WeatherDisplay:10.37,2013-04-30 05:10:00,
2013-04-30 01:20:00,55.2,47.1,28.12,NNE,17,0.0,0.0,74,0.00,CLR,,0.00,WeatherDisplay:10.37,2013-04-30 05:20:00,
2013-04-30 01:30:00,55.0,46.9,28.12,NE,42,0.0,0.0,74,0.00,CLR,,0.00,WeatherDisplay:10.37,2013-04-30 05:30:00,
2013-04-30 01:40:00,54.9,46.7,28.12,NE,36,1.0,2.0,74,0.00,CLR,,0.00,WeatherDisplay:10.37,2013-04-30 05:40:00,
2013-04-30 01:50:00,54.7,46.6,28.12,NNE,20,0.0,2.0,74,0.00,CLR,,0.00,WeatherDisplay:10.37,2013-04-30 05:50:00,
2013-04-30 02:00:00,54.1,46.0,28.12,NNW,338,0.0,0.0,74,0.00,CLR,,0.00,WeatherDisplay:10.37,2013-04-30 06:00:00,
2013-04-30 02:10:00,54.0,46.2,28.12,NNE,15,0.0,2.0,75,0.00,CLR,,0.00,WeatherDisplay:10.37,2013-04-30 06:10:00,
2013-04-30 02:20:00,54.5,48.8,28.12,ENE,61,1.0,2.0,81,0.00,CLR,,0.00,WeatherDisplay:10.37,2013-04-30 06:20:00,
2013-04-30 02:30:00,54.7,49.0,28.12,ENE,61,1.0,2.0,81,0.00,CLR,,0.00,WeatherDisplay:10.37,2013-04-30 06:30:00,
2013-04-30 02:40:00,54.6,48.2,28.12,NE,56,1.0,2.0,79,0.00,CLR,,0.00,WeatherDisplay:10.37,2013-04-30 06:40:00,
2013-04-30 02:50:00,54.7,48.6,28.09,ENE,64,1.0,2.0,80,0.00,CLR,,0.00,WeatherDisplay:10.37,2013-04-30 06:50:00,
2013-04-30 03:00:00,54.5,48.1,28.12,ENE,67,1.0,2.0,79,0.00,CLR,,0.00,WeatherDisplay:10.37,2013-04-30 07:00:00,
2013-04-30 03:10:00,54.1,47.3,28.12,NNE,25,0.0,1.0,78,0.00,CLR,,0.00,WeatherDisplay:10.37,2013-04-30 07:10:00,
2013-04-30 03:20:00,53.8,47.1,28.09,North,11,0.0,1.0,78,0.00,CLR,,0.00,WeatherDisplay:10.37,2013-04-30 07:20:00,
2013-04-30 03:30:00,53.8,48.4,28.12,NNE,28,1.0,2.0,82,0.00,CLR,,0.00,WeatherDisplay:10.37,2013-04-30 07:30:00,
2013-04-30 03:40:00,53.8,48.4,28.12,NE,51,1.0,2.0,82,0.00,CLR,,0.00,WeatherDisplay:10.37,2013-04-30 07:40:00,
2013-04-30 03:50:00,54.0,49.2,28.09,NE,37,0.0,2.0,84,0.00,CLR,,0.00,WeatherDisplay:10.37,2013-04-30 07:50:00,
2013-04-30 04:00:00,53.8,49.1,28.09,NE,54,0.0,0.0,84,0.00,CLR,,0.00,WeatherDisplay:10.37,2013-04-30 08:00:00,
2013-04-30 04:10:00,53.8,49.1,28.09,NE,53,0.0,1.0,84,0.00,CLR,,0.00,WeatherDisplay:10.37,2013-04-30 08:10:00,
2013-04-30 04:20:00,53.8,49.4,28.12,ENE,61,0.0,2.0,85,0.00,CLR,,0.00,WeatherDisplay:10.37,2013-04-30 08:20:00,
2013-04-30 04:30:00,53.4,48.7,28.09,ENE,62,0.0,1.0,84,0.00,CLR,,0.00,WeatherDisplay:10.37,2013-04-30 08:30:00,
2013-04-30 04:40:00,53.2,48.5,28.09,ESE,119,0.0,0.0,84,0.00,CLR,,0.00,WeatherDisplay:10.37,2013-04-30 08:40:00,
2013-04-30 04:50:00,53.2,48.8,28.12,NW,319,0.0,0.0,85,0.00,CLR,,0.00,WeatherDisplay:10.37,2013-04-30 08:50:00,
2013-04-30 05:00:00,53.2,48.8,28.12,West,260,0.0,1.0,85,0.00,CLR,,0.00,WeatherDisplay:10.37,2013-04-30 09:00:00,
2013-04-30 05:10:00,53.4,49.6,28.12,NE,37,0.0,2.0,87,0.00,CLR,,0.00,WeatherDisplay:10.37,2013-04-30 09:10:00,
2013-04-30 05:20:00,53.4,49.6,28.12,NE,48,0.0,0.0,87,0.00,CLR,,0.00,WeatherDisplay:10.37,2013-04-30 09:20:00,
2013-04-30 05:30:00,53.2,49.5,28.12,NNE,32,0.0,1.0,87,0.00,CLR,,0.00,WeatherDisplay:10.37,2013-04-30 09:30:00,
2013-04-30 05:40:00,53.4,50.3,28.12,NE,47,1.0,2.0,89,0.00,CLR,,0.00,WeatherDisplay:10.37,2013-04-30 09:40:00,
2013-04-30 05:50:00,53.4,50.3,28.12,NE,37,1.0,2.0,89,0.00,CLR,,0.00,WeatherDisplay:10.37,2013-04-30 09:50:00,
2013-04-30 06:00:00,53.4,50.3,28.12,NE,37,1.0,2.0,89,0.00,CLR,,0.00,WeatherDisplay:10.37,2013-04-30 10:00:00,
2013-04-30 06:10:00,53.4,50.6,28.12,NE,34,1.0,2.0,90,0.00,CLR,,0.00,WeatherDisplay:10.37,2013-04-30 10:10:00,
2013-04-30 06:20:00,53.5,50.9,28.12,NE,46,1.0,2.0,91,0.00,CLR,,0.00,WeatherDisplay:10.37,2013-04-30 10:20:00,
2013-04-30 06:30:00,53.2,50.4,28.15,NNE,31,1.0,2.0,90,0.00,CLR,,0.00,WeatherDisplay:10.37,2013-04-30 10:30:00,
2013-04-30 06:40:00,53.1,49.9,28.15,NE,53,0.0,2.0,89,0.00,CLR,,0.00,WeatherDisplay:10.37,2013-04-30 10:40:00,
2013-04-30 06:50:00,53.1,49.9,28.12,ENE,66,0.0,1.0,89,0.00,CLR,,0.00,WeatherDisplay:10.37,2013-04-30 10:50:00,
2013-04-30 07:00:00,53.1,49.9,28.15,ENE,57,0.0,1.0,89,0.00,CLR,,0.00,WeatherDisplay:10.37,2013-04-30 11:00:00,
2013-04-30 07:10:00,53.4,50.9,28.15,NNE,32,0.0,2.0,91,0.00,CLR,,0.00,WeatherDisplay:10.37,2013-04-30 11:10:00,
2013-04-30 07:20:00,53.7,51.4,28.15,NNE,22,0.0,1.0,92,0.00,CLR,,0.00,WeatherDisplay:10.37,2013-04-30 11:20:00,
2013-04-30 07:30:00,54.5,52.8,28.15,NE,44,2.0,2.0,94,0.00,CLR,,0.00,WeatherDisplay:10.37,2013-04-30 11:30:00,
2013-04-30 07:40:00,55.4,53.7,28.15,NE,48,0.0,2.0,94,0.00,CLR,,0.00,WeatherDisplay:10.37,2013-04-30 11:40:00,
2013-04-30 07:50:00,56.7,55.0,28.15,NNE,26,0.0,2.0,94,0.00,CLR,,0.00,WeatherDisplay:10.37,2013-04-30 11:50:00,
2013-04-30 07:59:00,57.5,55.2,28.18,NNE,28,2.0,3.0,92,0.00,CLR,,0.00,WeatherDisplay:10.37,2013-04-30 11:59:00,
2013-04-30 08:10:00,58.3,53.2,28.18,NE,38,1.0,3.0,83,0.00,CLR,,0.00,WeatherDisplay:10.37,2013-04-30 12:10:00,
2013-04-30 08:20:00,59.1,50.8,28.18,NE,37,2.0,4.0,74,0.00,CLR,,0.00,WeatherDisplay:10.37,2013-04-30 12:20:00,
2013-04-30 08:29:00,60.1,51.4,28.21,NNE,16,1.0,3.0,73,0.00,CLR,,0.00,WeatherDisplay:10.37,2013-04-30 12:29:00,
2013-04-30 08:40:00,61.1,51.3,28.21,NE,35,1.0,3.0,70,0.00,CLR,,0.00,WeatherDisplay:10.37,2013-04-30 12:40:00,
2013-04-30 08:49:00,61.7,49.4,28.18,NE,40,2.0,3.0,64,0.00,CLR,,0.00,WeatherDisplay:10.37,2013-04-30 12:49:00,
2013-04-30 09:00:00,62.6,49.0,28.18,NNE,30,2.0,5.0,61,0.00,CLR,,0.00,WeatherDisplay:10.37,2013-04-30 13:00:00,
2013-04-30 09:10:00,64.0,49.4,28.18,NE,34,1.0,3.0,59,0.00,CLR,,0.00,WeatherDisplay:10.37,2013-04-30 13:10:00,
2013-04-30 09:20:00,64.6,47.6,28.21,NNE,21,2.0,3.0,54,0.00,CLR,,0.00,WeatherDisplay:10.37,2013-04-30 13:20:00,
2013-04-30 09:29:00,65.4,47.3,28.18,NNE,18,1.0,6.0,52,0.00,CLR,,0.00,WeatherDisplay:10.37,2013-04-30 13:29:00,
2013-04-30 09:39:00,66.6,47.3,28.18,ENE,64,2.0,3.0,50,0.00,CLR,,0.00,WeatherDisplay:10.37,2013-04-30 13:39:00,
2013-04-30 09:50:00,67.6,47.2,28.21,NE,51,2.0,3.0,48,0.00,CLR,,0.00,WeatherDisplay:10.37,2013-04-30 13:50:00,
2013-04-30 09:59:00,68.2,46.0,28.18,NNE,32,2.0,3.0,45,0.00,CLR,,0.00,WeatherDisplay:10.37,2013-04-30 13:59:00,
2013-04-30 10:10:00,68.7,45.9,28.18,NE,53,2.0,5.0,44,0.00,CLR,,0.00,WeatherDisplay:10.37,2013-04-30 14:10:00,
2013-04-30 10:19:00,69.6,46.7,28.18,NNW,341,1.0,3.0,44,0.00,CLR,,0.00,WeatherDisplay:10.37,2013-04-30 14:19:00,
2013-04-30 10:30:00,70.7,45.2,28.21,North,350,1.0,3.0,40,0.00,CLR,,0.00,WeatherDisplay:10.37,2013-04-30 14:30:00,
2013-04-30 10:39:00,70.5,43.7,28.21,NNE,33,1.0,5.0,38,0.00,CLR,,0.00,WeatherDisplay:10.37,2013-04-30 14:39:00,
2013-04-30 10:50:00,71.3,47.0,28.18,NNW,335,1.0,2.0,42,0.00,CLR,,0.00,WeatherDisplay:10.37,2013-04-30 14:50:00,
2013-04-30 11:00:00,72.1,44.4,28.21,West,269,2.0,3.0,37,0.00,CLR,,0.00,WeatherDisplay:10.37,2013-04-30 15:00:00,
2013-04-30 11:09:00,71.1,42.7,28.21,West,277,1.0,3.0,36,0.00,CLR,,0.00,WeatherDisplay:10.37,2013-04-30 15:09:00,
2013-04-30 11:19:00,72.5,43.3,28.21,WSW,255,1.0,3.0,35,0.00,CLR,,0.00,WeatherDisplay:10.37,2013-04-30 15:19:00,
2013-04-30 11:29:00,72.5,43.3,28.21,NW,320,2.0,3.0,35,0.00,CLR,,0.00,WeatherDisplay:10.37,2013-04-30 15:29:00,
2013-04-30 11:39:00,72.7,41.9,28.21,East,88,1.0,5.0,33,0.00,CLR,,0.00,WeatherDisplay:10.37,2013-04-30 15:39:00,
2013-04-30 11:49:00,73.2,42.4,28.21,NW,306,2.0,3.0,33,0.00,CLR,,0.00,WeatherDisplay:10.37,2013-04-30 15:49:00,
2013-04-30 11:59:00,72.5,42.5,28.21,SW,222,1.0,4.0,34,0.00,CLR,,0.00,WeatherDisplay:10.37,2013-04-30 15:59:00,
2013-04-30 12:09:00,72.1,42.2,28.21,SW,233,1.0,4.0,34,0.00,CLR,,0.00,WeatherDisplay:10.37,2013-04-30 16:09:00,
2013-04-30 12:19:00,72.1,41.4,28.18,SSW,202,1.0,9.0,33,0.00,CLR,,0.00,WeatherDisplay:10.37,2013-04-30 16:19:00,
2013-04-30 12:29:00,71.1,40.5,28.18,WSW,252,1.0,3.0,33,0.00,CLR,,0.00,WeatherDisplay:10.37,2013-04-30 16:29:00,
2013-04-30 12:39:00,70.7,40.2,28.18,West,279,1.0,4.0,33,0.00,CLR,,0.00,WeatherDisplay:10.37,2013-04-30 16:39:00,
2013-04-30 12:49:00,70.0,40.3,28.18,SW,233,1.0,4.0,34,0.00,CLR,,0.00,WeatherDisplay:10.37,2013-04-30 16:49:00,
2013-04-30 13:00:00,70.8,41.8,28.18,WNW,295,2.0,4.0,35,0.00,CLR,,0.00,WeatherDisplay:10.37,2013-04-30 17:00:00,
2013-04-30 13:09:00,71.8,41.1,28.18,WSW,255,1.0,3.0,33,0.00,CLR,,0.00,WeatherDisplay:10.37,2013-04-30 17:09:00,
2013-04-30 13:20:00,73.4,41.7,28.18,WNW,290,2.0,5.0,32,0.00,CLR,,0.00,WeatherDisplay:10.37,2013-04-30 17:20:00,
2013-04-30 13:29:00,73.4,40.9,28.18,West,267,2.0,4.0,31,0.00,CLR,,0.00,WeatherDisplay:10.37,2013-04-30 17:29:00,
2013-04-30 13:39:00,74.3,41.7,28.18,SSW,204,2.0,6.0,31,0.00,CLR,,0.00,WeatherDisplay:10.37,2013-04-30 17:39:00,
2013-04-30 13:49:00,74.8,43.0,28.18,SW,226,1.0,4.0,32,0.00,CLR,,0.00,WeatherDisplay:10.37,2013-04-30 17:49:00,
2013-04-30 13:59:00,75.4,41.8,28.18,West,267,2.0,3.0,30,0.00,CLR,,0.00,WeatherDisplay:10.37,2013-04-30 17:59:00,
2013-04-30 14:09:00,75.7,37.4,28.18,West,273,1.0,4.0,25,0.00,CLR,,0.00,WeatherDisplay:10.37,2013-04-30 18:09:00,
2013-04-30 14:19:00,73.9,35.9,28.18,SSW,212,1.0,3.0,25,0.00,CLR,,0.00,WeatherDisplay:10.37,2013-04-30 18:19:00,
2013-04-30 14:29:00,75.6,38.2,28.18,NW,319,2.0,3.0,26,0.00,CLR,,0.00,WeatherDisplay:10.37,2013-04-30 18:29:00,
2013-04-30 14:39:00,75.6,39.2,28.18,WNW,302,0.0,2.0,27,0.00,CLR,,0.00,WeatherDisplay:10.37,2013-04-30 18:39:00,
2013-04-30 14:49:00,77.0,39.5,28.18,SSW,208,2.0,6.0,26,0.00,CLR,,0.00,WeatherDisplay:10.37,2013-04-30 18:49:00,
2013-04-30 14:59:00,77.7,37.0,28.18,SSW,195,1.0,4.0,23,0.00,CLR,,0.00,WeatherDisplay:10.37,2013-04-30 18:59:00,
2013-04-30 15:09:00,78.4,37.6,28.18,SSW,194,3.0,6.0,23,0.00,CLR,,0.00,WeatherDisplay:10.37,2013-04-30 19:09:00,
2013-04-30 15:19:00,79.0,38.0,28.21,SSW,201,2.0,6.0,23,0.00,CLR,,0.00,WeatherDisplay:10.37,2013-04-30 19:19:00,
2013-04-30 15:29:00,79.3,39.4,28.18,SSW,205,1.0,5.0,24,0.00,CLR,,0.00,WeatherDisplay:10.37,2013-04-30 19:29:00,
2013-04-30 15:39:00,79.5,38.5,28.18,SSW,197,1.0,6.0,23,0.00,CLR,,0.00,WeatherDisplay:10.37,2013-04-30 19:39:00,
2013-04-30 15:49:00,79.5,36.1,28.21,WNW,294,2.0,5.0,21,0.00,CLR,,0.00,WeatherDisplay:10.37,2013-04-30 19:49:00,
2013-04-30 15:59:00,78.4,35.2,28.21,WNW,297,0.0,3.0,21,0.00,CLR,,0.00,WeatherDisplay:10.37,2013-04-30 19:59:00,
2013-04-30 16:09:00,76.6,36.0,28.21,NE,48,2.0,4.0,23,0.00,CLR,,0.00,WeatherDisplay:10.37,2013-04-30 20:09:00,
2013-04-30 16:19:00,75.5,33.9,28.21,ENE,70,0.0,2.0,22,0.00,CLR,,0.00,WeatherDisplay:10.37,2013-04-30 20:19:00,
2013-04-30 16:29:00,78.3,36.3,28.21,ENE,57,3.0,5.0,22,0.00,CLR,,0.00,WeatherDisplay:10.37,2013-04-30 20:29:00,
2013-04-30 16:39:00,76.9,35.1,28.21,NNE,26,2.0,5.0,22,0.00,CLR,,0.00,WeatherDisplay:10.37,2013-04-30 20:39:00,
2013-04-30 16:49:00,77.5,37.9,28.21,North,358,1.0,3.0,24,0.00,CLR,,0.00,WeatherDisplay:10.37,2013-04-30 20:49:00,
2013-04-30 16:59:00,80.2,36.7,28.21,North,11,1.0,6.0,21,0.00,CLR,,0.00,WeatherDisplay:10.37,2013-04-30 20:59:00,
2013-04-30 17:09:00,80.6,35.8,28.21,North,352,1.0,3.0,20,0.00,CLR,,0.00,WeatherDisplay:10.37,2013-04-30 21:09:00,
2013-04-30 17:19:00,78.7,35.4,28.21,SSE,163,2.0,4.0,21,0.00,CLR,,0.00,WeatherDisplay:10.37,2013-04-30 21:19:00,
2013-04-30 17:29:00,76.5,35.9,28.21,WSW,240,1.0,3.0,23,0.00,CLR,,0.00,WeatherDisplay:10.37,2013-04-30 21:29:00,
2013-04-30 17:39:00,75.4,35.0,28.21,NE,40,1.0,3.0,23,0.00,CLR,,0.00,WeatherDisplay:10.37,2013-04-30 21:39:00,
2013-04-30 17:49:00,74.8,35.6,28.21,NE,44,1.0,2.0,24,0.00,CLR,,0.00,WeatherDisplay:10.37,2013-04-30 21:49:00,
2013-04-30 17:59:00,74.8,35.5,28.21,ENE,69,0.0,3.0,24,0.00,CLR,,0.00,WeatherDisplay:10.37,2013-04-30 21:59:00,
2013-04-30 18:09:00,73.2,39.0,28.21,SW,223,1.0,3.0,29,0.00,CLR,,0.00,WeatherDisplay:10.37,2013-04-30 22:09:00,
2013-04-30 18:19:00,76.6,40.1,28.21,SSW,210,2.0,5.0,27,0.00,CLR,,0.00,WeatherDisplay:10.37,2013-04-30 22:19:00,
2013-04-30 18:29:00,76.8,37.3,28.18,SSW,206,2.0,5.0,24,0.00,CLR,,0.00,WeatherDisplay:10.37,2013-04-30 22:29:00,
2013-04-30 18:39:00,75.6,37.3,28.18,SSW,196,1.0,5.0,25,0.00,CLR,,0.00,WeatherDisplay:10.37,2013-04-30 22:39:00,
2013-04-30 18:49:00,75.2,37.9,28.21,SSW,198,3.0,5.0,26,0.00,CLR,,0.00,WeatherDisplay:10.37,2013-04-30 22:49:00,
2013-04-30 18:59:00,74.0,39.7,28.18,South,189,0.0,4.0,29,0.00,CLR,,0.00,WeatherDisplay:10.37,2013-04-30 22:59:00,
2013-04-30 19:09:00,73.8,39.5,28.18,East,99,1.0,3.0,29,0.00,CLR,,0.00,WeatherDisplay:10.37,2013-04-30 23:09:00,
2013-04-30 19:19:00,73.0,38.9,28.18,ENE,66,2.0,3.0,29,0.00,CLR,,0.00,WeatherDisplay:10.37,2013-04-30 23:19:00,
2013-04-30 19:29:00,71.6,39.4,28.18,NE,54,0.0,4.0,31,0.00,CLR,,0.00,WeatherDisplay:10.37,2013-04-30 23:29:00,
2013-04-30 19:39:00,71.1,39.7,28.18,East,92,2.0,3.0,32,0.00,CLR,,0.00,WeatherDisplay:10.37,2013-04-30 23:39:00,
2013-04-30 19:49:00,70.7,39.4,28.18,NNE,29,1.0,3.0,32,0.00,CLR,,0.00,WeatherDisplay:10.37,2013-04-30 23:49:00,
2013-04-30 19:59:00,70.2,38.9,28.18,ENE,59,2.0,3.0,32,0.00,CLR,,0.00,WeatherDisplay:10.37,2013-04-30 23:59:00,
2013-04-30 20:09:00,69.3,38.9,28.18,NE,42,1.0,4.0,33,0.00,CLR,,0.00,WeatherDisplay:10.37,2013-05-01 00:09:00,
2013-04-30 20:19:00,68.6,39.1,28.21,East,80,2.0,4.0,34,0.00,CLR,,0.00,WeatherDisplay:10.37,2013-05-01 00:19:00,
2013-04-30 20:29:00,68.4,38.9,28.21,ENE,72,1.0,3.0,34,0.00,CLR,,0.00,WeatherDisplay:10.37,2013-05-01 00:29:00,
2013-04-30 20:39:00,67.8,39.9,28.21,ENE,70,2.0,3.0,36,0.00,CLR,,0.00,WeatherDisplay:10.37,2013-05-01 00:39:00,
2013-04-30 20:49:00,67.6,39.7,28.21,ENE,78,1.0,5.0,36,0.00,CLR,,0.00,WeatherDisplay:10.37,2013-05-01 00:49:00,
2013-04-30 20:59:00,67.5,40.3,28.21,NE,53,2.0,6.0,37,0.00,CLR,,0.00,WeatherDisplay:10.37,2013-05-01 00:59:00,
2013-04-30 21:09:00,67.1,40.6,28.21,NE,55,2.0,6.0,38,0.00,CLR,,0.00,WeatherDisplay:10.37,2013-05-01 01:09:00,
2013-04-30 21:19:00,66.7,41.0,28.21,NE,54,2.0,4.0,39,0.00,CLR,,0.00,WeatherDisplay:10.37,2013-05-01 01:19:00,
2013-04-30 21:29:00,66.6,41.5,28.21,NNE,22,0.0,3.0,40,0.00,CLR,,0.00,WeatherDisplay:10.37,2013-05-01 01:29:00,
2013-04-30 21:39:00,66.0,41.6,28.21,NNE,21,1.0,3.0,41,0.00,CLR,,0.00,WeatherDisplay:10.37,2013-05-01 01:39:00,
2013-04-30 21:49:00,65.3,42.8,28.24,ENE,75,1.0,3.0,44,0.00,CLR,,0.00,WeatherDisplay:10.37,2013-05-01 01:49:00,
2013-04-30 21:59:00,65.1,43.2,28.24,NE,35,1.0,2.0,45,0.00,CLR,,0.00,WeatherDisplay:10.37,2013-05-01 01:59:00,
2013-04-30 22:09:00,64.9,43.7,28.24,East,83,1.0,2.0,46,0.00,CLR,,0.00,WeatherDisplay:10.37,2013-05-01 02:09:00,
2013-04-30 22:19:00,64.8,43.5,28.24,East,81,1.0,2.0,46,0.00,CLR,,0.00,WeatherDisplay:10.37,2013-05-01 02:19:00,
2013-04-30 22:29:00,64.6,43.3,28.24,ENE,64,0.0,2.0,46,0.00,CLR,,0.00,WeatherDisplay:10.37,2013-05-01 02:29:00,
2013-04-30 22:40:00,64.4,43.7,28.24,ENE,67,5.0,5.0,47,0.00,CLR,,0.00,WeatherDisplay:10.37,2013-05-01 02:40:00,
2013-04-30 22:50:00,64.4,43.7,28.24,ENE,68,5.0,5.0,47,0.00,CLR,,0.00,WeatherDisplay:10.37,2013-05-01 02:50:00,
2013-04-30 23:00:00,63.7,43.6,28.24,ENE,61,2.0,3.0,48,0.00,CLR,,0.00,WeatherDisplay:10.37,2013-05-01 03:00:00,
2013-04-30 23:10:00,63.3,44.4,28.24,ENE,68,1.0,2.0,50,0.00,CLR,,0.00,WeatherDisplay:10.37,2013-05-01 03:10:00,
2013-04-30 23:19:00,63.3,44.3,28.27,ENE,69,1.0,2.0,50,0.00,CLR,,0.00,WeatherDisplay:10.37,2013-05-01 03:19:00,
2013-04-30 23:29:00,63.1,44.2,28.27,NE,37,2.0,3.0,50,0.00,CLR,,0.00,WeatherDisplay:10.37,2013-05-01 03:29:00,
2013-04-30 23:39:00,62.6,44.2,28.27,NE,37,2.0,3.0,51,0.00,CLR,,0.00,WeatherDisplay:10.37,2013-05-01 03:39:00,
2013-04-30 23:49:00,62.2,44.9,28.27,NNE,23,2.0,4.0,53,0.00,CLR,,0.00,WeatherDisplay:10.37,2013-05-01 03:49:00,
2013-04-30 23:59:00,62.2,44.4,28.27,NE,49,3.0,5.0,52,0.00,CLR,,0.00,WeatherDisplay:10.37,2013-05-01 03:59:00,